Time,TemperatureF,DewpointF,PressureIn,WindDirection,WindDirectionDegrees,WindSpeedMPH,WindSpeedGustMPH,Humidity,HourlyPrecipIn,Conditions,Clouds,dailyrainin,SoftwareType,DateUTC
2013-09-02 00:01:00,69.6,66.6,28.97,East,98,0.0,0.0,90,0.00,,BKN,0.00,VWS V13.01,2013-09-02 04:01:00,
2013-09-02 00:06:00,69.4,66.4,28.97,East,98,0.0,0.0,90,0.00,,BKN,0.00,VWS V13.01,2013-09-02 04:06:00,
2013-09-02 00:11:00,69.6,66.6,28.97,East,98,0.0,0.0,90,0.00,,BKN,0.00,VWS V13.01,2013-09-02 04:11:00,
2013-09-02 00:16:00,69.4,66.4,28.97,East,98,0.0,0.0,90,0.00,,BKN,0.00,VWS V13.01,2013-09-02 04:16:00,
2013-09-02 00:21:00,69.4,66.4,28.97,East,98,3.6,4.0,90,0.00,,BKN,0.00,VWS V13.01,2013-09-02 04:21:00,
2013-09-02 00:26:00,69.4,66.4,28.97,ESE,107,0.0,0.0,90,0.00,,BKN,0.00,VWS V13.01,2013-09-02 04:26:00,
2013-09-02 00:31:00,69.4,66.4,28.97,ESE,107,0.0,0.0,90,0.00,,BKN,0.00,VWS V13.01,2013-09-02 04:31:00,
2013-09-02 00:36:00,69.4,66.4,28.97,ESE,107,2.7,2.7,90,0.00,,BKN,0.00,VWS V13.01,2013-09-02 04:36:00,
2013-09-02 00:41:00,69.4,66.4,28.97,ESE,107,0.0,0.0,90,0.00,,BKN,0.00,VWS V13.01,2013-09-02 04:41:00,
2013-09-02 00:46:00,69.3,66.2,28.97,ESE,107,0.0,0.0,90,0.00,,BKN,0.00,VWS V13.01,2013-09-02 04:46:00,
2013-09-02 00:51:00,69.3,66.2,28.97,ESE,107,0.0,0.0,90,0.00,,BKN,0.00,VWS V13.01,2013-09-02 04:51:00,
2013-09-02 00:56:00,69.3,66.2,28.97,ESE,107,0.0,0.0,90,0.00,,BKN,0.00,VWS V13.01,2013-09-02 04:56:00,
2013-09-02 01:01:00,69.3,66.2,28.97,ESE,107,0.0,0.0,90,0.00,,BKN,0.00,VWS V13.01,2013-09-02 05:01:00,
2013-09-02 01:06:00,69.3,66.2,28.97,ESE,107,0.0,0.0,90,0.00,,BKN,0.00,VWS V13.01,2013-09-02 05:06:00,
2013-09-02 01:11:00,69.3,66.2,28.97,ESE,107,0.0,0.0,90,0.00,,BKN,0.00,VWS V13.01,2013-09-02 05:11:00,
2013-09-02 01:16:00,69.3,66.2,28.97,ESE,107,0.0,0.0,90,0.00,,BKN,0.00,VWS V13.01,2013-09-02 05:16:00,
2013-09-02 01:21:00,69.4,66.7,28.97,ESE,107,4.9,6.3,91,0.00,,BKN,0.00,VWS V13.01,2013-09-02 05:21:00,
2013-09-02 01:26:00,69.4,66.7,28.97,ESE,113,4.5,4.5,91,0.00,,BKN,0.00,VWS V13.01,2013-09-02 05:26:00,
2013-09-02 01:31:00,69.4,67.0,28.97,ESE,111,3.6,3.6,92,0.00,,BKN,0.00,VWS V13.01,2013-09-02 05:31:00,
2013-09-02 01:36:00,69.3,66.8,28.97,SE,135,2.7,3.1,92,0.00,,BKN,0.00,VWS V13.01,2013-09-02 05:36:00,
2013-09-02 01:40:00,69.3,66.8,28.97,SSE,147,0.0,0.0,92,0.00,,BKN,0.00,VWS V13.01,2013-09-02 05:40:00,
2013-09-02 01:45:00,69.3,66.8,28.97,SSE,147,0.0,0.0,92,0.00,,BKN,0.00,VWS V13.01,2013-09-02 05:45:00,
2013-09-02 01:50:00,69.3,66.8,28.97,SSE,147,0.0,0.0,92,0.00,,BKN,0.00,VWS V13.01,2013-09-02 05:50:00,
2013-09-02 01:55:00,69.4,67.0,28.97,SSE,147,0.0,0.0,92,0.00,,BKN,0.00,VWS V13.01,2013-09-02 05:55:00,
2013-09-02 02:00:00,69.4,67.0,28.97,SSE,147,0.0,0.0,92,0.00,,BKN,0.00,VWS V13.01,2013-09-02 06:00:00,
2013-09-02 02:05:00,69.4,67.0,28.97,SW,227,4.0,4.0,92,0.00,,BKN,0.00,VWS V13.01,2013-09-02 06:05:00,
2013-09-02 02:10:00,69.4,67.0,28.97,SW,227,0.0,0.0,92,0.00,,BKN,0.00,VWS V13.01,2013-09-02 06:10:00,
2013-09-02 02:15:00,69.6,67.2,28.97,SW,227,0.0,0.0,92,0.00,,BKN,0.00,VWS V13.01,2013-09-02 06:15:00,
2013-09-02 02:20:00,69.4,67.0,28.97,WSW,257,3.6,3.6,92,0.00,,BKN,0.00,VWS V13.01,2013-09-02 06:20:00,
2013-09-02 02:25:00,69.4,67.0,28.97,NW,310,3.6,4.9,92,0.00,,BKN,0.00,VWS V13.01,2013-09-02 06:25:00,
2013-09-02 02:30:00,69.4,67.0,28.97,NW,310,0.0,0.0,92,0.00,,BKN,0.00,VWS V13.01,2013-09-02 06:30:00,
2013-09-02 02:35:00,69.4,67.0,28.97,NW,310,0.0,0.0,92,0.00,,BKN,0.00,VWS V13.01,2013-09-02 06:35:00,
2013-09-02 02:40:00,69.4,67.0,28.97,NW,310,0.0,0.0,92,0.00,,BKN,0.00,VWS V13.01,2013-09-02 06:40:00,
2013-09-02 02:45:00,69.4,67.0,28.97,NW,310,0.0,0.0,92,0.00,,BKN,0.00,VWS V13.01,2013-09-02 06:45:00,
2013-09-02 02:50:00,69.4,67.0,28.97,NW,310,0.0,0.0,92,0.00,,BKN,0.00,VWS V13.01,2013-09-02 06:50:00,
2013-09-02 02:55:00,69.4,67.0,28.97,NW,310,3.1,4.0,92,0.00,,BKN,0.00,VWS V13.01,2013-09-02 06:55:00,
2013-09-02 03:00:00,69.3,66.8,28.97,NW,310,3.1,4.0,92,0.00,,BKN,0.00,VWS V13.01,2013-09-02 07:00:00,
2013-09-02 03:05:00,69.3,66.8,28.97,NW,310,3.1,3.6,92,0.00,,BKN,0.00,VWS V13.01,2013-09-02 07:05:00,
2013-09-02 03:10:00,69.3,66.8,28.97,NW,310,0.0,0.0,92,0.00,,BKN,0.00,VWS V13.01,2013-09-02 07:10:00,
2013-09-02 03:15:00,69.3,66.8,28.97,NW,310,0.0,0.0,92,0.00,,BKN,0.00,VWS V13.01,2013-09-02 07:15:00,
2013-09-02 03:20:00,69.3,66.8,28.97,NW,310,0.0,0.0,92,0.00,,BKN,0.00,VWS V13.01,2013-09-02 07:20:00,
2013-09-02 03:25:00,69.1,66.7,28.94,NW,310,0.0,0.0,92,0.00,,BKN,0.00,VWS V13.01,2013-09-02 07:25:00,
2013-09-02 03:30:00,69.1,66.7,28.94,NW,310,0.0,0.0,92,0.00,,BKN,0.00,VWS V13.01,2013-09-02 07:30:00,
2013-09-02 03:35:00,69.1,66.7,28.94,NW,310,0.0,0.0,92,0.00,,BKN,0.00,VWS V13.01,2013-09-02 07:35:00,
2013-09-02 03:40:00,68.9,66.5,28.94,NW,310,0.0,0.0,92,0.00,,BKN,0.00,VWS V13.01,2013-09-02 07:40:00,
2013-09-02 03:45:00,68.9,66.5,28.94,NW,310,0.0,0.0,92,0.00,,BKN,0.00,VWS V13.01,2013-09-02 07:45:00,
2013-09-02 03:50:00,68.9,66.5,28.94,NW,310,0.0,0.0,92,0.00,,BKN,0.00,VWS V13.01,2013-09-02 07:50:00,
2013-09-02 03:55:00,68.9,66.5,28.97,NW,310,0.0,0.0,92,0.00,,BKN,0.00,VWS V13.01,2013-09-02 07:55:00,
2013-09-02 04:00:00,68.9,66.5,28.97,NW,310,0.0,0.0,92,0.00,,BKN,0.00,VWS V13.01,2013-09-02 08:00:00,
2013-09-02 04:05:00,68.9,66.8,28.97,NW,310,0.0,0.0,93,0.00,,BKN,0.00,VWS V13.01,2013-09-02 08:05:00,
2013-09-02 04:10:00,68.7,66.6,28.97,NW,310,0.0,0.0,93,0.00,,BKN,0.00,VWS V13.01,2013-09-02 08:10:00,
2013-09-02 04:15:00,68.7,66.6,28.97,NW,310,0.0,0.0,93,0.00,,BKN,0.00,VWS V13.01,2013-09-02 08:15:00,
2013-09-02 04:20:00,68.7,66.6,28.97,NW,310,0.0,0.0,93,0.00,,BKN,0.00,VWS V13.01,2013-09-02 08:20:00,
2013-09-02 04:25:00,68.7,66.6,28.97,NW,310,0.0,0.0,93,0.00,,BKN,0.00,VWS V13.01,2013-09-02 08:25:00,
2013-09-02 04:30:00,68.5,66.4,28.97,NW,310,0.0,0.0,93,0.00,,BKN,0.00,VWS V13.01,2013-09-02 08:30:00,
2013-09-02 04:35:00,68.5,66.4,28.97,NW,310,0.0,0.0,93,0.00,,BKN,0.00,VWS V13.01,2013-09-02 08:35:00,
2013-09-02 04:40:00,68.5,66.4,28.94,NW,310,0.0,0.0,93,0.00,,BKN,0.00,VWS V13.01,2013-09-02 08:40:00,
2013-09-02 04:45:00,68.5,66.4,28.94,NW,310,0.0,0.0,93,0.00,,BKN,0.00,VWS V13.01,2013-09-02 08:45:00,
2013-09-02 04:50:00,68.5,66.4,28.94,NW,310,0.0,0.0,93,0.00,,BKN,0.00,VWS V13.01,2013-09-02 08:50:00,
2013-09-02 04:55:00,68.7,66.9,28.94,NW,310,0.0,0.0,94,0.00,,BKN,0.00,VWS V13.01,2013-09-02 08:55:00,
2013-09-02 05:00:00,68.7,66.9,28.94,NW,310,0.0,0.0,94,0.00,,BKN,0.00,VWS V13.01,2013-09-02 09:00:00,
2013-09-02 05:05:00,68.9,67.1,28.94,NW,310,0.0,0.0,94,0.00,,BKN,0.00,VWS V13.01,2013-09-02 09:05:00,
2013-09-02 05:10:00,68.9,67.1,28.94,NW,310,0.0,0.0,94,0.00,,BKN,0.00,VWS V13.01,2013-09-02 09:10:00,
2013-09-02 05:15:00,68.9,67.1,28.97,NW,310,0.0,0.0,94,0.00,,BKN,0.00,VWS V13.01,2013-09-02 09:15:00,
2013-09-02 05:20:00,68.7,66.6,28.97,NW,310,0.0,0.0,93,0.00,,BKN,0.00,VWS V13.01,2013-09-02 09:20:00,
2013-09-02 05:25:00,68.7,66.6,28.97,NW,310,0.0,0.0,93,0.00,,BKN,0.00,VWS V13.01,2013-09-02 09:25:00,
2013-09-02 05:30:00,68.7,66.6,28.97,NW,310,0.0,0.0,93,0.00,,BKN,0.00,VWS V13.01,2013-09-02 09:30:00,
2013-09-02 05:35:00,68.5,66.4,28.97,NW,310,0.0,0.0,93,0.00,,BKN,0.00,VWS V13.01,2013-09-02 09:35:00,
2013-09-02 05:40:00,68.5,66.4,28.97,NW,310,0.0,0.0,93,0.00,,BKN,0.00,VWS V13.01,2013-09-02 09:40:00,
2013-09-02 05:45:00,68.5,66.4,28.97,NW,310,0.0,0.0,93,0.00,,BKN,0.00,VWS V13.01,2013-09-02 09:45:00,
2013-09-02 05:50:00,68.5,66.4,28.97,NW,310,0.0,0.0,93,0.00,,BKN,0.00,VWS V13.01,2013-09-02 09:50:00,
2013-09-02 05:55:00,68.7,66.6,28.97,NW,310,0.0,0.0,93,0.00,,BKN,0.00,VWS V13.01,2013-09-02 09:55:00,
2013-09-02 06:00:00,68.7,66.6,28.97,NW,310,0.0,0.0,93,0.00,,BKN,0.00,VWS V13.01,2013-09-02 10:00:00,
2013-09-02 06:05:00,68.7,66.6,28.97,NW,310,0.0,0.0,93,0.00,,BKN,0.00,VWS V13.01,2013-09-02 10:05:00,
2013-09-02 06:10:00,68.5,66.4,28.97,NW,310,0.0,0.0,93,0.00,,BKN,0.00,VWS V13.01,2013-09-02 10:10:00,
2013-09-02 06:15:00,68.5,66.4,28.97,NW,310,0.0,0.0,93,0.00,,BKN,0.00,VWS V13.01,2013-09-02 10:15:00,
2013-09-02 06:20:00,68.5,66.4,28.97,NW,310,0.0,0.0,93,0.00,,BKN,0.00,VWS V13.01,2013-09-02 10:20:00,
2013-09-02 06:25:00,68.4,66.3,28.97,NW,310,0.0,0.0,93,0.00,,BKN,0.00,VWS V13.01,2013-09-02 10:25:00,
2013-09-02 06:30:00,68.4,66.3,28.97,NW,310,0.0,0.0,93,0.00,,BKN,0.00,VWS V13.01,2013-09-02 10:30:00,
2013-09-02 06:35:00,68.4,66.3,28.97,NW,310,0.0,0.0,93,0.00,,BKN,0.00,VWS V13.01,2013-09-02 10:35:00,
2013-09-02 06:40:00,68.4,66.3,28.97,NW,310,0.0,0.0,93,0.00,,BKN,0.00,VWS V13.01,2013-09-02 10:40:00,
2013-09-02 06:45:00,68.4,66.3,28.97,NW,310,0.0,0.0,93,0.00,,BKN,0.00,VWS V13.01,2013-09-02 10:45:00,
2013-09-02 06:50:00,68.2,66.1,28.97,NW,310,0.0,0.0,93,0.00,,BKN,0.00,VWS V13.01,2013-09-02 10:50:00,
2013-09-02 06:55:00,68.2,66.1,28.97,NW,310,0.0,0.0,93,0.00,,BKN,0.00,VWS V13.01,2013-09-02 10:55:00,
2013-09-02 07:00:00,68.4,66.3,28.97,NW,310,0.0,0.0,93,0.00,,BKN,0.00,VWS V13.01,2013-09-02 11:00:00,
2013-09-02 07:05:00,68.4,66.3,28.97,NW,310,0.0,0.0,93,0.00,,BKN,0.00,VWS V13.01,2013-09-02 11:05:00,
2013-09-02 07:10:00,68.5,66.4,28.97,NW,310,0.0,0.0,93,0.00,,BKN,0.00,VWS V13.01,2013-09-02 11:10:00,
2013-09-02 07:15:00,68.5,66.4,28.97,NW,310,0.0,0.0,93,0.00,,BKN,0.00,VWS V13.01,2013-09-02 11:15:00,
2013-09-02 07:20:00,68.7,66.6,28.97,NW,310,0.0,0.0,93,0.00,,BKN,0.00,VWS V13.01,2013-09-02 11:20:00,
2013-09-02 07:25:00,68.9,66.8,28.97,NW,310,0.0,0.0,93,0.00,,BKN,0.00,VWS V13.01,2013-09-02 11:25:00,
2013-09-02 07:30:00,69.3,67.2,28.97,NW,310,0.0,0.0,93,0.00,,BKN,0.00,VWS V13.01,2013-09-02 11:30:00,
2013-09-02 07:35:00,69.4,67.6,28.97,NW,310,0.0,0.0,94,0.00,,BKN,0.00,VWS V13.01,2013-09-02 11:35:00,
2013-09-02 07:40:00,69.4,67.6,28.97,NW,310,0.0,0.0,94,0.00,,BKN,0.00,VWS V13.01,2013-09-02 11:40:00,
2013-09-02 07:44:00,69.6,67.8,28.97,WSW,255,3.1,3.1,94,0.00,,BKN,0.00,VWS V13.01,2013-09-02 11:44:00,
2013-09-02 07:49:00,69.6,67.8,28.97,WSW,256,2.7,3.6,94,0.00,,BKN,0.00,VWS V13.01,2013-09-02 11:49:00,
2013-09-02 07:54:00,69.8,68.0,28.97,WSW,255,2.7,2.7,94,0.00,,BKN,0.00,VWS V13.01,2013-09-02 11:54:00,
2013-09-02 07:59:00,70.0,68.2,28.97,West,261,3.6,5.4,94,0.00,,BKN,0.00,VWS V13.01,2013-09-02 11:59:00,
2013-09-02 08:04:00,70.2,68.4,28.97,West,262,2.7,3.6,94,0.00,,BKN,0.00,VWS V13.01,2013-09-02 12:04:00,
2013-09-02 08:09:00,70.3,68.5,28.97,West,264,3.1,4.0,94,0.00,,BKN,0.00,VWS V13.01,2013-09-02 12:09:00,
2013-09-02 08:14:00,70.5,68.7,28.97,WSW,241,2.7,4.5,94,0.00,,BKN,0.00,VWS V13.01,2013-09-02 12:14:00,
2013-09-02 08:19:00,70.5,68.7,28.97,SW,226,4.0,4.5,94,0.00,,BKN,0.00,VWS V13.01,2013-09-02 12:19:00,
2013-09-02 08:24:00,70.7,68.9,28.97,WSW,248,2.7,5.4,94,0.00,,BKN,0.00,VWS V13.01,2013-09-02 12:24:00,
2013-09-02 08:29:00,70.9,69.1,28.97,SW,226,3.6,4.9,94,0.00,,BKN,0.00,VWS V13.01,2013-09-02 12:29:00,
2013-09-02 08:34:00,71.1,69.2,28.97,SW,228,2.7,3.6,94,0.00,,BKN,0.00,VWS V13.01,2013-09-02 12:34:00,
2013-09-02 08:39:00,71.4,69.6,28.97,WNW,286,2.7,5.8,94,0.00,,BKN,0.00,VWS V13.01,2013-09-02 12:39:00,
2013-09-02 08:44:00,71.8,70.0,28.97,SW,215,3.6,4.9,94,0.00,,BKN,0.00,VWS V13.01,2013-09-02 12:44:00,
2013-09-02 08:49:00,72.3,70.8,28.97,SW,215,2.7,3.1,95,0.00,,BKN,0.00,VWS V13.01,2013-09-02 12:49:00,
2013-09-02 08:54:00,72.9,71.0,28.97,SSW,207,0.0,3.1,94,0.00,,BKN,0.00,VWS V13.01,2013-09-02 12:54:00,
2013-09-02 08:59:00,73.0,71.2,29.00,SSW,213,2.7,3.6,94,0.00,,BKN,0.00,VWS V13.01,2013-09-02 12:59:00,
2013-09-02 09:04:00,73.2,71.1,29.00,SSW,200,3.1,3.1,93,0.00,,BKN,0.00,VWS V13.01,2013-09-02 13:04:00,
2013-09-02 09:09:00,73.6,71.4,29.00,SSW,202,0.0,3.1,93,0.00,,BKN,0.00,VWS V13.01,2013-09-02 13:09:00,
2013-09-02 09:14:00,74.3,72.2,29.00,South,178,3.1,3.1,93,0.00,,BKN,0.00,VWS V13.01,2013-09-02 13:14:00,
2013-09-02 09:19:00,74.1,71.7,29.00,SSW,199,0.0,3.1,92,0.00,,BKN,0.00,VWS V13.01,2013-09-02 13:19:00,
2013-09-02 09:24:00,74.1,71.3,29.00,SSW,199,0.0,2.7,91,0.00,,BKN,0.00,VWS V13.01,2013-09-02 13:24:00,
2013-09-02 09:29:00,74.1,71.0,29.00,SSW,199,0.0,3.1,90,0.00,,BKN,0.00,VWS V13.01,2013-09-02 13:29:00,
2013-09-02 09:34:00,74.3,70.2,29.00,SW,215,3.6,4.5,87,0.00,,BKN,0.00,VWS V13.01,2013-09-02 13:34:00,
2013-09-02 09:39:00,74.8,69.7,29.00,SW,229,3.1,3.1,84,0.00,,BKN,0.00,VWS V13.01,2013-09-02 13:39:00,
2013-09-02 09:44:00,75.4,69.2,29.00,SSW,212,2.7,3.6,81,0.00,,BKN,0.00,VWS V13.01,2013-09-02 13:44:00,
2013-09-02 09:49:00,76.3,69.7,29.00,SSW,205,0.0,3.1,80,0.00,,BKN,0.00,VWS V13.01,2013-09-02 13:49:00,
2013-09-02 09:54:00,76.8,70.2,29.00,SSW,202,3.1,3.6,80,0.00,,BKN,0.00,VWS V13.01,2013-09-02 13:54:00,
2013-09-02 09:59:00,76.8,65.9,29.00,West,277,0.0,0.0,69,0.00,,BKN,0.00,VWS V13.01,2013-09-02 13:59:00,
2013-09-02 10:04:00,77.4,66.4,29.00,West,277,0.0,0.0,69,0.00,,BKN,0.00,VWS V13.01,2013-09-02 14:04:00,
2013-09-02 10:09:00,78.1,67.1,29.00,SSW,201,4.0,4.0,69,0.00,,BKN,0.00,VWS V13.01,2013-09-02 14:09:00,
2013-09-02 10:14:00,79.0,66.7,29.00,SSW,207,4.0,4.0,66,0.00,,BKN,0.00,VWS V13.01,2013-09-02 14:14:00,
2013-09-02 10:19:00,79.3,64.7,29.00,SSW,206,0.0,0.0,61,0.00,,BKN,0.00,VWS V13.01,2013-09-02 14:19:00,
2013-09-02 10:24:00,79.5,63.5,29.00,WSW,249,0.0,0.0,58,0.00,,BKN,0.00,VWS V13.01,2013-09-02 14:24:00,
2013-09-02 10:29:00,80.1,64.0,29.00,SSE,158,0.0,2.7,58,0.00,,BKN,0.00,VWS V13.01,2013-09-02 14:29:00,
2013-09-02 10:34:00,80.6,63.5,29.00,SSW,210,0.0,3.1,56,0.00,,BKN,0.00,VWS V13.01,2013-09-02 14:34:00,
2013-09-02 10:39:00,80.8,62.6,29.00,SSW,192,0.0,0.0,54,0.00,,BKN,0.00,VWS V13.01,2013-09-02 14:39:00,
2013-09-02 10:44:00,80.2,61.0,29.00,SSW,212,0.0,0.0,52,0.00,,BKN,0.00,VWS V13.01,2013-09-02 14:44:00,
2013-09-02 10:49:00,80.4,62.3,29.00,SSW,208,0.0,0.0,54,0.00,,BKN,0.00,VWS V13.01,2013-09-02 14:49:00,
2013-09-02 10:54:00,80.4,61.2,29.00,South,188,3.6,3.6,52,0.00,,BKN,0.00,VWS V13.01,2013-09-02 14:54:00,
2013-09-02 10:59:00,80.2,61.0,29.00,SSW,202,2.7,4.5,52,0.00,,BKN,0.00,VWS V13.01,2013-09-02 14:59:00,
2013-09-02 11:04:00,80.4,61.7,29.00,ESE,113,4.0,4.0,53,0.00,,BKN,0.00,VWS V13.01,2013-09-02 15:04:00,
2013-09-02 11:09:00,80.8,60.4,29.00,ESE,118,4.0,4.0,50,0.00,,BKN,0.00,VWS V13.01,2013-09-02 15:09:00,
2013-09-02 11:14:00,81.1,60.8,29.00,SW,214,2.7,2.7,50,0.00,,BKN,0.00,VWS V13.01,2013-09-02 15:14:00,
2013-09-02 11:19:00,81.5,61.1,29.00,SSW,195,0.0,0.0,50,0.00,,BKN,0.00,VWS V13.01,2013-09-02 15:19:00,
2013-09-02 11:24:00,82.0,61.6,29.00,SW,214,0.0,0.0,50,0.00,,BKN,0.00,VWS V13.01,2013-09-02 15:24:00,
2013-09-02 11:29:00,82.4,62.5,29.00,SW,215,0.0,0.0,51,0.00,,BKN,0.00,VWS V13.01,2013-09-02 15:29:00,
2013-09-02 11:34:00,82.4,61.9,29.00,NE,56,0.0,0.0,50,0.00,,BKN,0.00,VWS V13.01,2013-09-02 15:34:00,
2013-09-02 11:39:00,82.9,62.4,29.00,SW,232,4.0,4.5,50,0.00,,BKN,0.00,VWS V13.01,2013-09-02 15:39:00,
2013-09-02 11:44:00,83.1,60.8,29.00,SSW,204,2.7,3.6,47,0.00,,BKN,0.00,VWS V13.01,2013-09-02 15:44:00,
2013-09-02 11:49:00,82.9,61.2,29.00,SSW,206,3.1,3.1,48,0.00,,BKN,0.00,VWS V13.01,2013-09-02 15:49:00,
2013-09-02 11:54:00,82.8,61.1,29.00,SW,233,0.0,0.0,48,0.00,,BKN,0.00,VWS V13.01,2013-09-02 15:54:00,
2013-09-02 11:59:00,82.9,61.2,29.00,SW,215,0.0,0.0,48,0.00,,BKN,0.00,VWS V13.01,2013-09-02 15:59:00,
2013-09-02 12:04:00,83.5,62.3,29.00,SW,215,0.0,0.0,49,0.00,,BKN,0.00,VWS V13.01,2013-09-02 16:04:00,
2013-09-02 12:09:00,83.7,61.9,29.00,SW,223,4.0,4.0,48,0.00,,BKN,0.00,VWS V13.01,2013-09-02 16:09:00,
2013-09-02 12:14:00,83.3,61.0,29.00,SW,223,0.0,0.0,47,0.00,,BKN,0.00,VWS V13.01,2013-09-02 16:14:00,
2013-09-02 12:19:00,83.1,61.4,29.00,SW,223,0.0,0.0,48,0.00,,BKN,0.00,VWS V13.01,2013-09-02 16:19:00,
2013-09-02 12:24:00,83.1,59.6,29.00,SW,223,0.0,0.0,45,0.00,,BKN,0.00,VWS V13.01,2013-09-02 16:24:00,
2013-09-02 12:29:00,82.9,59.4,29.00,SW,223,0.0,0.0,45,0.00,,BKN,0.00,VWS V13.01,2013-09-02 16:29:00,
2013-09-02 12:34:00,83.1,62.0,29.00,SW,223,0.0,0.0,49,0.00,,BKN,0.00,VWS V13.01,2013-09-02 16:34:00,
2013-09-02 12:39:00,83.3,61.0,29.00,SW,223,0.0,0.0,47,0.00,,BKN,0.00,VWS V13.01,2013-09-02 16:39:00,
2013-09-02 12:44:00,83.5,60.5,28.97,SW,223,0.0,0.0,46,0.00,,BKN,0.00,VWS V13.01,2013-09-02 16:44:00,
2013-09-02 12:49:00,83.7,60.7,28.97,SW,223,0.0,0.0,46,0.00,,BKN,0.00,VWS V13.01,2013-09-02 16:49:00,
2013-09-02 12:54:00,83.7,59.5,28.97,SW,223,0.0,0.0,44,0.00,,BKN,0.00,VWS V13.01,2013-09-02 16:54:00,
2013-09-02 12:59:00,83.7,59.5,28.97,SW,223,0.0,0.0,44,0.00,,BKN,0.00,VWS V13.01,2013-09-02 16:59:00,
2013-09-02 13:03:00,84.0,59.1,28.97,SW,223,0.0,0.0,43,0.00,,BKN,0.00,VWS V13.01,2013-09-02 17:03:00,
2013-09-02 13:08:00,84.6,60.9,28.97,SW,223,0.0,0.0,45,0.00,,BKN,0.00,VWS V13.01,2013-09-02 17:08:00,
2013-09-02 13:13:00,84.7,58.5,28.97,SW,223,0.0,0.0,41,0.00,,BKN,0.00,VWS V13.01,2013-09-02 17:13:00,
2013-09-02 13:18:00,84.7,57.8,28.97,SW,223,0.0,0.0,40,0.00,,BKN,0.00,VWS V13.01,2013-09-02 17:18:00,
2013-09-02 13:23:00,84.7,58.5,28.97,SW,223,0.0,0.0,41,0.00,,BKN,0.00,VWS V13.01,2013-09-02 17:23:00,
2013-09-02 13:28:00,86.2,58.3,28.97,SW,223,0.0,0.0,39,0.00,,BKN,0.00,VWS V13.01,2013-09-02 17:28:00,
2013-09-02 13:33:00,86.2,58.3,28.97,SW,223,0.0,0.0,39,0.00,,BKN,0.00,VWS V13.01,2013-09-02 17:33:00,
2013-09-02 13:38:00,86.4,58.5,28.97,SW,223,0.0,0.0,39,0.00,,BKN,0.00,VWS V13.01,2013-09-02 17:38:00,
2013-09-02 13:43:00,86.2,59.0,28.97,SW,223,0.0,0.0,40,0.00,,BKN,0.00,VWS V13.01,2013-09-02 17:43:00,
2013-09-02 13:48:00,86.2,59.0,28.97,SW,223,0.0,0.0,40,0.00,,BKN,0.00,VWS V13.01,2013-09-02 17:48:00,
2013-09-02 13:53:00,86.2,59.7,28.97,SW,223,0.0,0.0,41,0.00,,BKN,0.00,VWS V13.01,2013-09-02 17:53:00,
2013-09-02 13:58:00,86.2,59.0,28.97,SW,223,0.0,0.0,40,0.00,,BKN,0.00,VWS V13.01,2013-09-02 17:58:00,
2013-09-02 14:03:00,86.5,58.7,28.97,SW,223,0.0,0.0,39,0.00,,BKN,0.00,VWS V13.01,2013-09-02 18:03:00,
2013-09-02 14:08:00,86.5,56.4,28.97,SW,223,0.0,0.0,36,0.00,,BKN,0.00,VWS V13.01,2013-09-02 18:08:00,
2013-09-02 14:13:00,86.9,58.3,28.97,SW,223,0.0,0.0,38,0.00,,BKN,0.00,VWS V13.01,2013-09-02 18:13:00,
2013-09-02 14:18:00,87.1,59.2,28.97,SW,223,0.0,0.0,39,0.00,,BKN,0.00,VWS V13.01,2013-09-02 18:18:00,
2013-09-02 14:23:00,87.3,58.6,28.97,SW,223,0.0,0.0,38,0.00,,BKN,0.00,VWS V13.01,2013-09-02 18:23:00,
2013-09-02 14:28:00,87.3,59.3,28.94,SW,223,0.0,0.0,39,0.00,,BKN,0.00,VWS V13.01,2013-09-02 18:28:00,
2013-09-02 14:33:00,87.3,58.6,28.94,SW,223,0.0,0.0,38,0.00,,BKN,0.00,VWS V13.01,2013-09-02 18:33:00,
2013-09-02 14:38:00,87.3,59.3,28.94,SW,223,0.0,0.0,39,0.00,,BKN,0.00,VWS V13.01,2013-09-02 18:38:00,
2013-09-02 14:43:00,87.1,58.4,28.94,SW,223,0.0,0.0,38,0.00,,BKN,0.00,VWS V13.01,2013-09-02 18:43:00,
2013-09-02 14:48:00,87.1,58.4,28.94,SW,223,0.0,0.0,38,0.00,,BKN,0.00,VWS V13.01,2013-09-02 18:48:00,
2013-09-02 14:53:00,86.5,59.4,28.94,SW,223,0.0,0.0,40,0.00,,BKN,0.00,VWS V13.01,2013-09-02 18:53:00,
2013-09-02 14:58:00,86.5,58.7,28.94,SW,223,0.0,0.0,39,0.00,,BKN,0.00,VWS V13.01,2013-09-02 18:58:00,
2013-09-02 15:03:00,86.5,58.7,28.94,SW,223,0.0,0.0,39,0.00,,BKN,0.00,VWS V13.01,2013-09-02 19:03:00,
2013-09-02 15:08:00,86.5,59.4,28.94,SW,223,0.0,0.0,40,0.00,,BKN,0.00,VWS V13.01,2013-09-02 19:08:00,
2013-09-02 15:13:00,84.9,57.9,28.94,SW,223,0.0,0.0,40,0.00,,BKN,0.00,VWS V13.01,2013-09-02 19:13:00,
2013-09-02 15:18:00,84.9,57.9,28.94,SW,223,0.0,0.0,40,0.00,,BKN,0.00,VWS V13.01,2013-09-02 19:18:00,
2013-09-02 15:23:00,84.9,57.9,28.94,SW,223,0.0,0.0,40,0.00,,BKN,0.00,VWS V13.01,2013-09-02 19:23:00,
2013-09-02 15:28:00,84.9,57.2,28.94,SW,223,0.0,0.0,39,0.00,,BKN,0.00,VWS V13.01,2013-09-02 19:28:00,
2013-09-02 15:33:00,87.1,58.4,28.94,SW,223,0.0,0.0,38,0.00,,BKN,0.00,VWS V13.01,2013-09-02 19:33:00,
2013-09-02 15:38:00,87.3,57.1,28.94,SW,223,0.0,0.0,36,0.00,,BKN,0.00,VWS V13.01,2013-09-02 19:38:00,
2013-09-02 15:43:00,87.3,58.6,28.94,SW,223,0.0,0.0,38,0.00,,BKN,0.00,VWS V13.01,2013-09-02 19:43:00,
2013-09-02 15:48:00,87.3,58.6,28.94,SW,223,0.0,0.0,38,0.00,,BKN,0.00,VWS V13.01,2013-09-02 19:48:00,
2013-09-02 15:53:00,87.3,58.6,28.94,SW,223,0.0,0.0,38,0.00,,BKN,0.00,VWS V13.01,2013-09-02 19:53:00,
2013-09-02 15:58:00,87.1,58.4,28.91,SW,223,0.0,0.0,38,0.00,,BKN,0.00,VWS V13.01,2013-09-02 19:58:00,
2013-09-02 16:03:00,87.1,57.7,28.91,SW,223,0.0,0.0,37,0.00,,BKN,0.00,VWS V13.01,2013-09-02 20:03:00,
2013-09-02 16:08:00,87.1,58.4,28.91,SW,223,0.0,0.0,38,0.00,,BKN,0.00,VWS V13.01,2013-09-02 20:08:00,
2013-09-02 16:13:00,87.1,59.2,28.91,SW,223,0.0,0.0,39,0.00,,BKN,0.00,VWS V13.01,2013-09-02 20:13:00,
2013-09-02 16:18:00,87.3,58.6,28.91,SW,223,0.0,0.0,38,0.00,,BKN,0.00,VWS V13.01,2013-09-02 20:18:00,
2013-09-02 16:23:00,87.3,59.3,28.91,SW,223,0.0,0.0,39,0.00,,BKN,0.00,VWS V13.01,2013-09-02 20:23:00,
2013-09-02 16:28:00,87.3,58.6,28.91,SW,223,0.0,0.0,38,0.00,,BKN,0.00,VWS V13.01,2013-09-02 20:28:00,
2013-09-02 16:33:00,87.3,58.6,28.91,SW,223,0.0,0.0,38,0.00,,BKN,0.00,VWS V13.01,2013-09-02 20:33:00,
2013-09-02 16:38:00,87.3,60.0,28.91,SW,223,0.0,0.0,40,0.00,,BKN,0.00,VWS V13.01,2013-09-02 20:38:00,
2013-09-02 16:43:00,87.3,60.0,28.91,SW,223,0.0,0.0,40,0.00,,BKN,0.00,VWS V13.01,2013-09-02 20:43:00,
2013-09-02 16:48:00,86.4,59.2,28.91,SW,223,0.0,0.0,40,0.00,,BKN,0.00,VWS V13.01,2013-09-02 20:48:00,
2013-09-02 16:53:00,86.4,59.9,28.91,SW,223,0.0,0.0,41,0.00,,BKN,0.00,VWS V13.01,2013-09-02 20:53:00,
2013-09-02 16:58:00,86.4,60.6,28.91,SW,223,0.0,0.0,42,0.00,,BKN,0.00,VWS V13.01,2013-09-02 20:58:00,
2013-09-02 17:03:00,86.4,60.6,28.91,SW,223,0.0,0.0,42,0.00,,BKN,0.00,VWS V13.01,2013-09-02 21:03:00,
2013-09-02 17:08:00,86.4,59.9,28.91,SW,223,0.0,0.0,41,0.00,,BKN,0.00,VWS V13.01,2013-09-02 21:08:00,
2013-09-02 17:13:00,86.4,60.6,28.91,SW,223,0.0,0.0,42,0.00,,BKN,0.00,VWS V13.01,2013-09-02 21:13:00,
2013-09-02 17:18:00,86.4,60.6,28.91,SW,223,0.0,0.0,42,0.00,,BKN,0.00,VWS V13.01,2013-09-02 21:18:00,
2013-09-02 17:23:00,86.4,60.6,28.91,SW,223,0.0,0.0,42,0.00,,BKN,0.00,VWS V13.01,2013-09-02 21:23:00,
2013-09-02 17:28:00,86.4,61.2,28.91,SW,223,0.0,0.0,43,0.00,,BKN,0.00,VWS V13.01,2013-09-02 21:28:00,
2013-09-02 17:33:00,86.4,59.9,28.91,SW,223,0.0,0.0,41,0.00,,BKN,0.00,VWS V13.01,2013-09-02 21:33:00,
2013-09-02 17:38:00,86.4,60.6,28.91,SW,223,0.0,0.0,42,0.00,,BKN,0.00,VWS V13.01,2013-09-02 21:38:00,
2013-09-02 17:43:00,86.4,60.6,28.91,SW,223,0.0,0.0,42,0.00,,BKN,0.00,VWS V13.01,2013-09-02 21:43:00,
2013-09-02 17:48:00,86.4,61.2,28.91,SW,223,0.0,0.0,43,0.00,,BKN,0.00,VWS V13.01,2013-09-02 21:48:00,
2013-09-02 17:53:00,85.8,60.8,28.91,SW,223,0.0,0.0,43,0.00,,BKN,0.00,VWS V13.01,2013-09-02 21:53:00,
2013-09-02 17:58:00,85.8,61.4,28.91,SW,223,0.0,0.0,44,0.00,,BKN,0.00,VWS V13.01,2013-09-02 21:58:00,
2013-09-02 18:03:00,85.8,62.0,28.91,SW,223,0.0,0.0,45,0.00,,BKN,0.00,VWS V13.01,2013-09-02 22:03:00,
2013-09-02 18:08:00,84.7,62.3,28.91,SW,223,0.0,0.0,47,0.00,,BKN,0.00,VWS V13.01,2013-09-02 22:08:00,
2013-09-02 18:13:00,84.7,62.3,28.91,SW,223,0.0,0.0,47,0.00,,BKN,0.00,VWS V13.01,2013-09-02 22:13:00,
2013-09-02 18:18:00,84.7,62.3,28.91,SW,223,0.0,0.0,47,0.00,,BKN,0.00,VWS V13.01,2013-09-02 22:18:00,
2013-09-02 18:23:00,84.7,62.3,28.91,SW,223,0.0,0.0,47,0.00,,BKN,0.00,VWS V13.01,2013-09-02 22:23:00,
2013-09-02 18:28:00,84.4,62.0,28.91,SW,223,0.0,0.0,47,0.00,,BKN,0.00,VWS V13.01,2013-09-02 22:28:00,
2013-09-02 18:33:00,84.2,61.8,28.91,SW,223,0.0,0.0,47,0.00,,BKN,0.00,VWS V13.01,2013-09-02 22:33:00,
2013-09-02 18:38:00,84.2,62.4,28.91,SW,223,0.0,0.0,48,0.00,,BKN,0.00,VWS V13.01,2013-09-02 22:38:00,
2013-09-02 18:43:00,84.2,62.4,28.91,SW,223,0.0,0.0,48,0.00,,BKN,0.00,VWS V13.01,2013-09-02 22:43:00,
2013-09-02 18:48:00,84.2,63.0,28.91,SW,223,0.0,0.0,49,0.00,,BKN,0.00,VWS V13.01,2013-09-02 22:48:00,
2013-09-02 18:52:00,83.3,62.7,28.91,SW,223,0.0,0.0,50,0.00,,BKN,0.00,VWS V13.01,2013-09-02 22:52:00,
2013-09-02 18:57:00,82.9,62.4,28.91,SW,223,0.0,0.0,50,0.00,,BKN,0.00,VWS V13.01,2013-09-02 22:57:00,
2013-09-02 19:02:00,82.8,62.2,28.91,SW,223,0.0,0.0,50,0.00,,BKN,0.00,VWS V13.01,2013-09-02 23:02:00,
2013-09-02 19:07:00,82.8,62.2,28.91,SW,223,0.0,0.0,50,0.00,,BKN,0.00,VWS V13.01,2013-09-02 23:07:00,
2013-09-02 19:12:00,82.6,62.1,28.91,SW,223,0.0,0.0,50,0.00,,BKN,0.00,VWS V13.01,2013-09-02 23:12:00,
2013-09-02 19:17:00,82.4,61.9,28.91,SW,223,0.0,0.0,50,0.00,,BKN,0.00,VWS V13.01,2013-09-02 23:17:00,
2013-09-02 19:22:00,82.2,61.8,28.91,SW,223,0.0,0.0,50,0.00,,BKN,0.00,VWS V13.01,2013-09-02 23:22:00,
2013-09-02 19:27:00,81.9,62.0,28.91,SW,223,0.0,0.0,51,0.00,,BKN,0.00,VWS V13.01,2013-09-02 23:27:00,
2013-09-02 19:32:00,81.7,61.8,28.91,SW,223,0.0,0.0,51,0.00,,BKN,0.00,VWS V13.01,2013-09-02 23:32:00,
2013-09-02 19:37:00,81.3,62.0,28.91,SW,223,0.0,0.0,52,0.00,,BKN,0.00,VWS V13.01,2013-09-02 23:37:00,
2013-09-02 19:42:00,81.1,61.9,28.91,SW,223,0.0,0.0,52,0.00,,BKN,0.00,VWS V13.01,2013-09-02 23:42:00,
2013-09-02 19:47:00,80.8,61.5,28.91,SW,223,0.0,0.0,52,0.00,,BKN,0.00,VWS V13.01,2013-09-02 23:47:00,
2013-09-02 19:52:00,80.2,61.6,28.91,SW,223,0.0,0.0,53,0.00,,BKN,0.00,VWS V13.01,2013-09-02 23:52:00,
2013-09-02 19:57:00,80.1,61.9,28.91,SW,223,0.0,0.0,54,0.00,,BKN,0.00,VWS V13.01,2013-09-02 23:57:00,
2013-09-02 20:02:00,80.1,61.9,28.91,SW,223,0.0,0.0,54,0.00,,BKN,0.00,VWS V13.01,2013-09-03 00:02:00,
2013-09-02 20:07:00,79.9,61.8,28.91,SW,223,0.0,0.0,54,0.00,,BKN,0.00,VWS V13.01,2013-09-03 00:07:00,
2013-09-02 20:12:00,79.9,61.8,28.91,SW,223,0.0,0.0,54,0.00,,BKN,0.00,VWS V13.01,2013-09-03 00:12:00,
2013-09-02 20:17:00,79.7,61.6,28.91,SW,223,0.0,0.0,54,0.00,,BKN,0.00,VWS V13.01,2013-09-03 00:17:00,
2013-09-02 20:22:00,79.5,61.4,28.91,SW,223,0.0,0.0,54,0.00,,BKN,0.00,VWS V13.01,2013-09-03 00:22:00,
2013-09-02 20:27:00,79.3,63.3,28.91,South,181,0.0,0.0,58,0.00,,BKN,0.00,VWS V13.01,2013-09-03 00:27:00,
2013-09-02 20:32:00,79.3,63.3,28.91,South,181,0.0,0.0,58,0.00,,BKN,0.00,VWS V13.01,2013-09-03 00:32:00,
2013-09-02 20:37:00,79.2,63.1,28.91,South,181,0.0,0.0,58,0.00,,BKN,0.00,VWS V13.01,2013-09-03 00:37:00,
2013-09-02 20:42:00,79.0,63.0,28.91,South,181,0.0,0.0,58,0.00,,BKN,0.00,VWS V13.01,2013-09-03 00:42:00,
2013-09-02 20:47:00,78.8,62.8,28.91,South,181,0.0,0.0,58,0.00,,BKN,0.00,VWS V13.01,2013-09-03 00:47:00,
2013-09-02 20:52:00,79.0,63.0,28.91,South,181,0.0,0.0,58,0.00,,BKN,0.00,VWS V13.01,2013-09-03 00:52:00,
2013-09-02 20:57:00,78.8,62.8,28.91,South,181,0.0,0.0,58,0.00,,BKN,0.00,VWS V13.01,2013-09-03 00:57:00,
2013-09-02 21:02:00,78.8,62.8,28.91,South,181,0.0,0.0,58,0.00,,BKN,0.00,VWS V13.01,2013-09-03 01:02:00,
2013-09-02 21:07:00,78.6,62.6,28.91,South,181,0.0,0.0,58,0.00,,BKN,0.00,VWS V13.01,2013-09-03 01:07:00,
2013-09-02 21:12:00,78.3,62.3,28.94,South,181,0.0,0.0,58,0.00,,BKN,0.00,VWS V13.01,2013-09-03 01:12:00,
2013-09-02 21:17:00,78.1,62.6,28.94,South,181,0.0,0.0,59,0.00,,BKN,0.00,VWS V13.01,2013-09-03 01:17:00,
2013-09-02 21:22:00,77.5,62.1,28.94,South,181,0.0,0.0,59,0.00,,BKN,0.00,VWS V13.01,2013-09-03 01:22:00,
2013-09-02 21:27:00,77.2,62.2,28.94,South,181,0.0,0.0,60,0.00,,BKN,0.00,VWS V13.01,2013-09-03 01:27:00,
2013-09-02 21:32:00,76.8,61.9,28.94,South,181,0.0,0.0,60,0.00,,BKN,0.00,VWS V13.01,2013-09-03 01:32:00,
2013-09-02 21:37:00,76.5,61.6,28.94,South,181,0.0,0.0,60,0.00,,BKN,0.00,VWS V13.01,2013-09-03 01:37:00,
2013-09-02 21:42:00,76.1,62.2,28.94,South,181,0.0,0.0,62,0.00,,BKN,0.00,VWS V13.01,2013-09-03 01:42:00,
2013-09-02 21:47:00,75.7,61.8,28.94,South,181,0.0,0.0,62,0.00,,BKN,0.00,VWS V13.01,2013-09-03 01:47:00,
2013-09-02 21:52:00,75.6,62.1,28.94,South,181,0.0,0.0,63,0.00,,BKN,0.00,VWS V13.01,2013-09-03 01:52:00,
2013-09-02 21:57:00,75.2,62.2,28.94,South,181,0.0,0.0,64,0.00,,BKN,0.00,VWS V13.01,2013-09-03 01:57:00,
2013-09-02 22:02:00,75.0,62.5,28.94,South,181,0.0,0.0,65,0.00,,BKN,0.00,VWS V13.01,2013-09-03 02:02:00,
2013-09-02 22:07:00,74.8,62.3,28.94,South,181,0.0,0.0,65,0.00,,BKN,0.00,VWS V13.01,2013-09-03 02:07:00,
2013-09-02 22:12:00,74.7,62.6,28.94,South,181,0.0,0.0,66,0.00,,BKN,0.00,VWS V13.01,2013-09-03 02:12:00,
2013-09-02 22:17:00,74.5,62.8,28.94,South,181,0.0,0.0,67,0.00,,BKN,0.00,VWS V13.01,2013-09-03 02:17:00,
2013-09-02 22:22:00,74.5,62.8,28.94,South,181,0.0,0.0,67,0.00,,BKN,0.00,VWS V13.01,2013-09-03 02:22:00,
2013-09-02 22:27:00,74.5,62.8,28.94,South,181,0.0,0.0,67,0.00,,BKN,0.00,VWS V13.01,2013-09-03 02:27:00,
2013-09-02 22:32:00,74.3,62.6,28.94,South,181,0.0,0.0,67,0.00,,BKN,0.00,VWS V13.01,2013-09-03 02:32:00,
2013-09-02 22:37:00,74.3,62.6,28.94,South,181,0.0,0.0,67,0.00,,BKN,0.00,VWS V13.01,2013-09-03 02:37:00,
2013-09-02 22:42:00,73.9,62.3,28.94,South,181,0.0,0.0,67,0.00,,BKN,0.00,VWS V13.01,2013-09-03 02:42:00,
2013-09-02 22:47:00,73.9,62.3,28.94,South,181,0.0,0.0,67,0.00,,BKN,0.00,VWS V13.01,2013-09-03 02:47:00,
2013-09-02 22:52:00,73.6,62.0,28.94,South,181,0.0,0.0,67,0.00,,BKN,0.00,VWS V13.01,2013-09-03 02:52:00,
2013-09-02 22:57:00,73.4,61.8,28.97,South,181,0.0,0.0,67,0.00,,BKN,0.00,VWS V13.01,2013-09-03 02:57:00,
2013-09-02 23:02:00,73.0,61.5,28.97,South,181,0.0,0.0,67,0.00,,BKN,0.00,VWS V13.01,2013-09-03 03:02:00,
2013-09-02 23:07:00,72.9,61.3,28.97,South,181,0.0,0.0,67,0.00,,BKN,0.00,VWS V13.01,2013-09-03 03:07:00,
2013-09-02 23:12:00,72.7,61.1,28.94,South,181,0.0,0.0,67,0.00,,BKN,0.00,VWS V13.01,2013-09-03 03:12:00,
2013-09-02 23:17:00,72.7,63.5,28.94,South,181,0.0,0.0,73,0.00,,BKN,0.00,VWS V13.01,2013-09-03 03:17:00,
2013-09-02 23:22:00,72.5,63.8,28.94,South,181,0.0,0.0,74,0.00,,BKN,0.00,VWS V13.01,2013-09-03 03:22:00,
2013-09-02 23:27:00,72.5,64.9,28.94,South,181,0.0,0.0,77,0.00,,BKN,0.00,VWS V13.01,2013-09-03 03:27:00,
2013-09-02 23:32:00,72.5,64.9,28.94,South,181,0.0,0.0,77,0.00,,BKN,0.00,VWS V13.01,2013-09-03 03:32:00,
2013-09-02 23:37:00,72.3,64.7,28.94,South,181,0.0,0.0,77,0.00,,BKN,0.00,VWS V13.01,2013-09-03 03:37:00,
2013-09-02 23:42:00,72.3,64.7,28.94,South,181,0.0,0.0,77,0.00,,BKN,0.00,VWS V13.01,2013-09-03 03:42:00,
2013-09-02 23:47:00,72.3,65.4,28.94,South,181,0.0,0.0,79,0.00,,BKN,0.00,VWS V13.01,2013-09-03 03:47:00,
2013-09-02 23:52:00,72.9,66.0,28.94,South,181,0.0,0.0,79,0.00,,BKN,0.00,VWS V13.01,2013-09-03 03:52:00,
2013-09-02 23:57:00,73.0,66.2,28.94,South,181,0.0,0.0,79,0.00,,BKN,0.00,VWS V13.01,2013-09-03 03:57:00,